• Join FlightAware (Why Join?)
  • Login
  • US Flag GB Flag 
15:52 EDT


 

Airport Tracker/Info


-or-


 

Live Flight TrackerFlight Track Log ✈ SWA286 ✈ 18-Apr-2013 ✈ KBNA - KDEN

Flight Track Log - Related Links

Times and Time Zones

All times are in EDT time to prevent confusion due to time zone crossing. See the SWA286 flight status page for this flight to view local times or setup timezone preferences in your user account.

Time Position Orientation Groundspeed Altitude Reporting Facility
EDT Latitude Longitude Course Direction KTS MPH feet Rate Location/Type
16:48 36.1000 -86.6833 219° Southwest 161 185 1,400  Level Nashville TRACON
16:48 36.0833 -86.7000 219° Southwest 179 206 2,000 1,800 Climbing Nashville TRACON
16:49 36.1167 -86.7833 296° West 265 305 3,800 2,820 Climbing Nashville TRACON
16:50 36.1500 -86.8667 296° West 282 325 7,700 3,000 Climbing Nashville TRACON
16:51 36.1333 -86.9775 259° West 258 297 10,500 1,740 Climbing Memphis Center
16:52 36.1192 -87.0758 260° West 292 336 11,400 1,740 Climbing Memphis Center
16:53 36.1017 -87.1972 260° West 347 399 14,000 2,820 Climbing Memphis Center
16:54 36.0797 -87.3189 257° West 365 420 17,100 2,940 Climbing Memphis Center
16:55 36.0533 -87.4431 255° West 377 434 19,900 2,580 Climbing Memphis Center
16:56 36.0272 -87.5697 256° West 382 440 22,300 1,980 Climbing Memphis Center
16:57 36.0031 -87.7039 257° West 390 449 23,900 1,620 Climbing Memphis Center
16:58 35.9728 -87.8511 256° West 396 456 25,600 1,500 Climbing Memphis Center
16:59 35.9442 -87.9906 256° West 410 472 27,000 1,500 Climbing Memphis Center
17:00 35.9156 -88.1322 256° West 421 484 28,600 1,680 Climbing Memphis Center
17:01 35.8844 -88.2639 254° West 413 475 30,400 1,740 Climbing Memphis Center
17:02 35.8281 -88.3831 240° Southwest 413 475 32,100 1,680 Climbing Memphis Center
17:03 35.7672 -88.5022 238° Southwest 408 470 33,800 1,560 Climbing Memphis Center
17:04 35.7106 -88.6133 238° Southwest 408 470 35,300 1,260 Climbing Memphis Center
17:05 35.6536 -88.7294 239° Southwest 402 463 36,400 1,200 Climbing Memphis Center
17:06 35.5986 -88.8378 238° Southwest 390 449 37,800 780 Climbing Memphis Center
17:07 35.5497 -88.9356 238° Southwest 385 443 38,000 60 Climbing Memphis Center
17:08 35.4969 -89.0464 240° Southwest 380 437 38,000  Level Memphis Center
17:09 35.4436 -89.1517 238° Southwest 374 430 38,000  Level Memphis Center
17:10 35.3906 -89.2567 238° Southwest 374 430 38,000  Level Memphis Center
17:11 35.3369 -89.3594 237° Southwest 369 425 38,000  Level Memphis Center
17:12 35.2836 -89.4642 238° Southwest 363 418 38,000  Level Memphis Center
17:13 35.2300 -89.5689 238° Southwest 368 423 38,000  Level Memphis Center
17:14 35.1744 -89.6789 238° Southwest 374 430 38,000  Level Memphis Center
17:15 35.1167 -89.7961 239° Southwest 374 430 38,000  Level Memphis Center
17:16 35.0608 -89.9056 238° Southwest 374 430 38,000  Level Memphis Center
17:17 35.0131 -90.0172 242° Southwest 379 436 38,000  Level Memphis Center
17:18 34.9947 -90.1417 260° West 373 429 38,000  Level Memphis Center
17:19 34.9761 -90.2633 259° West 373 429 38,000  Level Memphis Center
17:20 34.9594 -90.3850 261° West 373 429 38,000  Level Memphis Center
17:21 34.9406 -90.5039 259° West 373 429 38,000  Level Memphis Center
17:22 34.9236 -90.6231 260° West 368 423 38,000  Level Memphis Center
17:23 34.9044 -90.7419 259° West 368 423 38,000  Level Memphis Center
17:24 34.8875 -90.8583 260° West 363 418 38,000  Level Memphis Center
17:25 34.8703 -90.9772 260° West 358 412 38,000  Level Memphis Center
17:26 34.8508 -91.1011 259° West 363 418 38,000  Level Memphis Center
17:27 34.8333 -91.2250 260° West 369 425 38,000  Level Memphis Center
17:28 34.8117 -91.3461 258° West 369 425 38,000  Level Memphis Center
17:29 34.7961 -91.4572 260° West 369 425 38,000  Level Memphis Center
17:30 34.7761 -91.5758 258° West 370 426 38,000  Level Memphis Center
17:31 34.7561 -91.7019 259° West 370 426 38,000  Level Memphis Center
17:32 34.7381 -91.8306 260° West 364 419 38,000  Level Memphis Center
17:33 34.7844 -91.9503 295° West 363 418 38,000  Level Memphis Center
17:34 34.8308 -92.0672 296° West 369 425 38,000  Level Memphis Center
17:35 34.8772 -92.1847 296° West 380 437 38,000  Level Memphis Center
17:36 34.9233 -92.2997 296° West 380 437 38,000  Level Memphis Center
17:37 34.9675 -92.4172 295° West 380 437 38,000  Level Memphis Center
17:38 35.0114 -92.5325 295° West 380 437 38,000  Level Memphis Center
17:39 35.0553 -92.6528 294° West 380 437 38,000  Level Memphis Center
17:40 35.0989 -92.7681 295° West 380 437 38,000  Level Memphis Center
17:41 35.1486 -92.8889 297° West 380 437 38,000  Level Memphis Center
17:42 35.1919 -93.0072 294° West 386 444 38,000  Level Memphis Center
17:43 35.2353 -93.1256 294° West 381 438 38,000  Level Memphis Center
17:44 35.2767 -93.2389 294° West 381 438 38,000  Level Memphis Center
17:45 35.3239 -93.3575 296° West 381 438 38,000  Level Memphis Center
17:46 35.3647 -93.4733 293° West 376 433 38,000  Level Memphis Center
17:47 35.4078 -93.5897 294° West 376 433 38,000  Level Memphis Center
17:48 35.4525 -93.7086 295° West 381 438 38,000  Level Memphis Center
17:49 35.4953 -93.8250 294° West 381 438 38,000  Level Memphis Center
17:50 35.5378 -93.9442 294° West 381 438 38,000  Level Memphis Center
17:51 35.5822 -94.0611 295° West 381 438 38,000  Level Memphis Center
17:52 35.6244 -94.1856 293° West 381 438 38,000  Level Memphis Center
17:53 35.6708 -94.3053 296° West 386 444 38,000  Level Memphis Center
17:54 35.7147 -94.4275 294° West 386 444 38,000  Level Memphis Center
17:55 35.7608 -94.5500 295° West 386 444 38,000  Level Memphis Center
17:57 35.8531 -94.8142 293° West 392 451 38,000  Level Kansas City Center
17:59 35.8975 -94.9392 294° West 394 453 38,000  Level Kansas City Center
18:00 35.9414 -95.0639 294° West 395 455 38,000  Level Kansas City Center
18:01 35.9967 -95.2122 295° West 393 452 38,000  Level Kansas City Center
18:02 36.0400 -95.3394 293° West 397 457 38,000  Level Kansas City Center
18:03 36.0797 -95.4525 294° West 398 458 38,000  Level Kansas City Center
18:04 36.1239 -95.5767 294° West 397 457 38,000  Level Kansas City Center
18:05 36.1750 -95.7269 293° West 397 457 38,000  Level Kansas City Center
18:06 36.2183 -95.8450 294° West 395 455 38,000  Level Kansas City Center
18:07 36.2700 -95.9667 298° West 396 456 38,000  Level Kansas City Center
18:08 36.3200 -96.0900 297° West 397 457 38,000  Level Kansas City Center
18:09 36.3689 -96.2108 297° West 393 452 38,000  Level Kansas City Center
18:10 36.4272 -96.3561 297° West 391 450 38,000  Level Kansas City Center
18:11 36.4753 -96.4764 296° West 390 449 38,000  Level Kansas City Center
18:12 36.5250 -96.5978 297° West 391 450 38,000  Level Kansas City Center
18:13 36.5736 -96.7206 296° West 393 452 38,000  Level Kansas City Center
18:14 36.6236 -96.8447 297° West 398 458 38,000  Level Kansas City Center
18:15 36.6706 -96.9669 296° West 393 452 38,000  Level Kansas City Center
18:16 36.7269 -97.1072 297° West 392 451 38,000  Level Kansas City Center
18:17 36.7722 -97.2319 294° West 395 455 38,000  Level Kansas City Center
18:18 36.8139 -97.3553 293° West 391 450 38,000  Level Kansas City Center
18:19 36.8617 -97.4886 294° West 390 449 38,000  Level Kansas City Center
18:20 36.9050 -97.6178 293° West 396 456 38,000  Level Kansas City Center
18:21 36.9497 -97.7453 294° West 399 459 38,000  Level Kansas City Center
18:22 36.9936 -97.8758 293° West 404 465 38,000  Level Kansas City Center
18:23 37.0381 -98.0056 293° West 403 464 38,000  Level Kansas City Center
18:24 37.0811 -98.1353 293° West 403 464 38,000  Level Kansas City Center
18:25 37.1256 -98.2656 293° West 404 465 38,000  Level Kansas City Center
18:26 37.1775 -98.4222 293° West 404 465 38,000  Level Kansas City Center
18:27 37.2203 -98.5497 293° West 400 460 38,000  Level Kansas City Center
18:29 37.2636 -98.6783 293° West 399 459 38,000  Level Kansas City Center
18:30 37.3058 -98.8081 292° West 400 460 38,000  Level Kansas City Center
18:31 37.3483 -98.9383 292° West 402 463 38,000  Level Kansas City Center
18:32 37.3919 -99.0708 293° West 406 467 38,000  Level Kansas City Center
18:33 37.4356 -99.2031 293° West 409 471 38,000  Level Kansas City Center
18:34 37.4883 -99.3622 293° West 411 473 38,000  Level Kansas City Center
18:35 37.5269 -99.4875 291° West 412 474 38,000  Level Kansas City Center
18:36 37.5758 -99.6389 292° West 417 480 38,000  Level Kansas City Center
18:37 37.6186 -99.7689 293° West 419 482 38,000  Level Kansas City Center
18:38 37.6667 -99.9203 292° West 418 481 38,000  Level Kansas City Center
18:39 37.7075 -100.0500 292° West 417 480 38,000  Level Kansas City Center
18:40 37.7544 -100.2000 292° West 414 476 38,000  Level Kansas City Center
18:41 37.7936 -100.3269 291° West 409 471 38,000  Level Kansas City Center
18:42 37.8411 -100.4767 292° West 411 473 38,000  Level Kansas City Center
18:43 37.8803 -100.6036 291° West 409 471 38,000  Level Kansas City Center
18:44 37.9269 -100.7514 292° West 409 471 38,000 -300 Level Kansas City Center
18:45 37.9767 -100.8767 297° West 416 479 37,500 -720 Descending Kansas City Center
18:46 38.0100 -100.9606 297° West 418 481 36,900 -960 Descending Denver Center
18:47 38.0581 -101.0867 296° West 418 481 36,000 -480 Descending Denver Center
18:48 38.1128 -101.2314 296° West 410 472 36,000  Level Denver Center
18:49 38.1611 -101.3583 296° West 416 479 36,000  Level Denver Center
18:50 38.2225 -101.5053 298° West 421 484 36,000  Level Denver Center
18:51 38.2850 -101.6269 303° West 427 491 36,000  Level Denver Center
18:52 38.3561 -101.7697 302° West 428 493 36,000  Level Denver Center
18:53 38.4158 -101.8914 302° West 425 489 36,000 -120 Level Denver Center
18:54 38.4767 -102.0117 303° West 423 487 35,800 -660 Descending Denver Center
18:55 38.5475 -102.1567 302° West 429 494 34,700 -1,080 Descending Denver Center
18:56 38.6086 -102.2822 302° West 435 501 33,700 -1,020 Descending Denver Center
18:57 38.6781 -102.4261 302° West 427 491 32,700 -840 Descending Denver Center
18:58 38.7367 -102.5467 302° West 419 482 32,000 -360 Descending Denver Center
18:59 38.8022 -102.6839 302° West 405 466 32,000  Level Denver Center
19:00 38.8606 -102.8022 302° West 399 459 32,000  Level Denver Center
19:01 38.9178 -102.9236 301° West 397 457 32,000  Level Denver Center
19:02 38.9764 -103.0444 302° West 396 456 32,000 -720 Level Denver Center
19:03 39.0328 -103.1650 301° West 392 451 30,600 -1,680 Descending Denver Center
19:04 39.0881 -103.2800 302° West 380 437 28,600 -2,040 Descending Denver Center
19:05 39.1419 -103.3911 302° West 366 421 26,500 -2,100 Descending Denver Center
19:06 39.2003 -103.5181 301° West 350 403 24,300 -2,040 Descending Denver Center
19:07 39.2489 -103.6206 302° West 336 387 22,400 -1,800 Descending Denver Center
19:08 39.2956 -103.7197 301° West 321 369 20,600 -1,740 Descending Denver Center
19:09 39.3381 -103.8189 299° West 315 362 18,900 -1,380 Descending Denver Center
19:10 39.3419 -103.9325 273° West 315 362 17,800 -1,020 Descending Denver Center
19:11 39.3472 -104.0458 273° West 314 361 16,800 -1,620 Descending Denver Center
19:12 39.3514 -104.1669 273° West 311 358 14,600 -1,860 Descending Denver Center
19:13 39.3581 -104.2764 275° West 309 356 13,000 -780 Descending Denver Center
19:14 39.3639 -104.3767 274° West 260 299 13,000 -540 Level Denver Center
19:15 39.3806 -104.4506 286° West 219 252 12,000 -1,140 Descending Denver Center
19:16 39.4025 -104.5214 292° West 219 252 10,700 -1,020 Descending Denver Center
19:17 39.4525 -104.5728 322° Northwest 220 253 10,000 -780 Descending Denver Center
19:19 39.5078 -104.6047 336° Northwest 218 251 9,200 -540 Descending Denver Center
19:20 39.5678 -104.6417 335° Northwest 222 255 9,000 -120 Descending Denver Center
19:21 39.6258 -104.6631 344° North 219 252 9,000 -420 Level Denver Center
19:22 39.6872 -104.6619 North 221 254 8,200 -1,080 Descending Denver Center
19:23 39.7522 -104.6614 360° North 216 249 6,900 -1,080 Descending Denver Center
19:24 39.7964 -104.6611 360° North 161 185 6,100 -780 Descending Denver Center
19:25 39.8378 -104.6606 North 145 167 5,300 -780 Descending Denver Center
19:27 39.8500 -104.6667 North  Level FlightAware Approximate
19:34 39.8617 -104.6732 North  Level Estimated
19:35 39.8617 -104.6732 North  Level Estimated